Summit Argo, IL (60501)

02:15 AM CDT del 23 Maggio 2015 (GMT -0500)
Garfield Ridge | | Change Station
CLOSE
Current Station
Stazione meteo personale
Location: Chicago, IL
Altitudine: 604 ft
Stazioni meteo nelle vicinanze

Alt. 604 ft 41.78 °N, 87.79 °W | Updated 6 seconds ago

Molto nuvoloso
Molto nuvoloso
50.0 °F
Sembra 50.0 °F
N
0.0
Vento Variabile Vento da Nord
Gusts 0.0 mph

Oggi
Massima -- | Minima -- °F
--% Possibilità di precip.
Ieri
Massima -- | Minima -- °F
Precip. -- in
5:24 AM 8:11 PM
Luna crescente, 27% visible
Pressione 30.28 in
Visibilità 10.0 miglia
Nuvole Molto nuvoloso 22000 ft
Punto di rugiada 39 °F
Umidità 66%
Piovosità 0.00 in
Spessore del manto nevoso Non disponibile.
Raggi UV 0 fuori da 12
Polline 8.00 fuori da 12
Qualità dell'aria Non disponibile.
Flu Activity Sporadic
METAR KMDW 230653Z 11004KT 10SM BKN220 13/04 A3029 RMK AO2 SLP254 T01280039

More Conditions Fewer Conditions

Pressione 30.28 in
Visibilità 10.0 miglia
Nuvole Molto nuvoloso 22000 ft
Punto di rugiada 39 °F
Umidità 66%
Piovosità 0.00 in
Spessore del manto nevoso Non disponibile.
Raggi UV 0 fuori da 12
Polline 8.00 fuori da 12
Qualità dell'aria Non disponibile.
Flu Activity Sporadic
METAR KMDW 230653Z 11004KT 10SM BKN220 13/04 A3029 RMK AO2 SLP254 T01280039

More Conditions Fewer Conditions

10-Day Weather Forecast

Almanac

Astronomia

May. 23, 2015 Alba Tramonto
Ora attuale
Crepuscolo civile
Crepuscolo nautico
Crepuscolo astronomico
Luna
Estensione della luce visibile
Lunghezza del giorno
Tomorrow will be .
, % of the Moon is Illuminated

Gli estremi di oggi

State Highs State Lows

Community

WunderPhotos

Upload Photos

1,823,394 foto caricate!

WunderBlogs® & News

Nearby

Qualità dell'aria

  Qualità dell'aria Indice AQ Inquinante
Not available.

Profondità neve

Stazione Profondità Altitudine

Attività sismica

Città  Distanza Mag. Data & Ora
Minimo Magnitudo Mostrato è 2.5.

Temperature delle acque costiere

Località Temperatura

Stations

Stazioni meteo nelle vicinanze

Ubicazione della stazione Temp. Raffreddamento del vento Punto di rugiada Umidità Vento Precip. Alt. Aggiornato Tipo